Time;durP1;ratioP1;P1;durP2;ratioP2;P2;SDS_P1;SDS_P2;PMS_P1;PMS_P2;Temp;Humidity;BMP_temperature;BMP_pressure;BME280_temperature;BME280_humidity;BME280_pressure;Samples;Min_cycle;Max_cycle;Signal;HPM_P1;HPM_P2
2024/01/26 00:00:10;;;;;;;15.35;7.32;;;8.50;99.30;;;;;;5054396;28;20045;-48
2024/01/26 00:02:36;;;;;;;12.57;7.13;;;8.60;99.00;;;;;;5051457;28;20124;-47
2024/01/26 00:05:02;;;;;;;12.23;6.75;;;8.60;98.70;;;;;;5053492;28;20116;-48
2024/01/26 00:07:28;;;;;;;13.80;6.72;;;8.70;98.60;;;;;;5051561;28;20044;-46
2024/01/26 00:09:55;;;;;;;12.05;6.45;;;8.70;98.30;;;;;;5043145;28;20033;-47
2024/01/26 00:12:21;;;;;;;40.33;18.48;;;8.80;98.20;;;;;;5031348;28;20132;-48
2024/01/26 00:14:46;;;;;;;51.20;24.75;;;8.80;98.00;;;;;;5034104;28;20124;-47
2024/01/26 00:17:12;;;;;;;17.75;9.20;;;8.80;97.90;;;;;;5033247;28;20128;-45
2024/01/26 00:19:38;;;;;;;32.28;16.48;;;8.70;97.80;;;;;;5030745;28;20041;-48
2024/01/26 00:22:04;;;;;;;15.45;8.52;;;8.70;97.70;;;;;;5033397;28;20030;-47
2024/01/26 00:24:30;;;;;;;16.85;6.88;;;8.60;97.30;;;;;;5033228;28;20092;-46
2024/01/26 00:26:56;;;;;;;11.13;5.85;;;8.60;97.30;;;;;;5032332;28;20040;-48
2024/01/26 00:29:21;;;;;;;15.43;5.97;;;8.60;97.70;;;;;;5033869;28;20033;-46
2024/01/26 00:31:47;;;;;;;12.82;6.03;;;8.50;97.60;;;;;;5033406;28;20557;-46
2024/01/26 00:34:13;;;;;;;17.30;6.55;;;8.50;97.60;;;;;;5033582;28;20594;-47
2024/01/26 00:36:38;;;;;;;14.13;5.70;;;8.40;97.60;;;;;;5047845;28;20487;-48
2024/01/26 00:39:06;;;;;;;12.48;5.50;;;8.40;97.50;;;;;;5033916;28;20060;-46
2024/01/26 00:41:32;;;;;;;16.52;6.47;;;8.30;97.60;;;;;;5033647;28;20534;-47
2024/01/26 00:43:58;;;;;;;13.07;5.68;;;8.20;97.70;;;;;;5033359;28;20029;-48
2024/01/26 00:46:24;;;;;;;12.60;7.05;;;8.10;97.80;;;;;;5033333;28;20116;-48
2024/01/26 00:48:50;;;;;;;11.57;5.35;;;8.00;98.20;;;;;;5052296;28;20524;-48
2024/01/26 00:51:15;;;;;;;12.38;4.97;;;8.00;98.20;;;;;;5017891;28;20044;-48
2024/01/26 00:53:41;;;;;;;14.93;5.97;;;8.00;98.30;;;;;;5052907;28;20523;-48
2024/01/26 00:56:07;;;;;;;14.02;5.60;;;8.00;98.20;;;;;;5053142;28;20166;-48
2024/01/26 00:58:33;;;;;;;15.63;7.28;;;7.90;98.40;;;;;;5053033;28;20480;-48
2024/01/26 01:00:59;;;;;;;13.63;5.78;;;7.90;98.60;;;;;;5052878;28;20032;-49
2024/01/26 01:03:24;;;;;;;12.10;6.53;;;7.90;98.50;;;;;;5052803;28;20021;-45
2024/01/26 01:05:50;;;;;;;11.25;5.53;;;7.80;98.40;;;;;;5052750;28;20415;-47
2024/01/26 01:08:16;;;;;;;14.82;6.95;;;7.80;98.70;;;;;;5052904;28;20103;-46
2024/01/26 01:10:42;;;;;;;13.82;5.82;;;7.80;98.90;;;;;;5053388;28;20052;-47
2024/01/26 01:13:10;;;;;;;16.42;5.97;;;7.70;99.00;;;;;;5017308;28;20056;-49
2024/01/26 01:15:37;;;;;;;16.08;6.70;;;7.60;99.00;;;;;;5052696;28;20036;-48
2024/01/26 01:18:03;;;;;;;13.63;6.05;;;7.60;99.20;;;;;;5052392;28;20084;-47
2024/01/26 01:20:29;;;;;;;15.60;7.05;;;7.50;99.50;;;;;;5052267;28;20484;-47
2024/01/26 01:22:57;;;;;;;15.13;7.47;;;7.50;99.50;;;;;;5052507;28;20120;-47
2024/01/26 01:25:23;;;;;;;16.20;6.88;;;7.50;99.70;;;;;;5052564;28;20485;-48
2024/01/26 01:27:49;;;;;;;14.60;8.13;;;7.40;99.70;;;;;;5052991;28;20060;-46
2024/01/26 01:30:14;;;;;;;13.65;6.63;;;7.30;99.90;;;;;;5053017;28;20725;-46
2024/01/26 01:32:40;;;;;;;10.25;6.63;;;7.30;99.90;;;;;;5052102;28;20067;-48
2024/01/26 01:35:06;;;;;;;13.55;6.38;;;7.20;99.90;;;;;;5052558;28;20039;-47
2024/01/26 01:37:32;;;;;;;15.35;6.35;;;7.20;99.90;;;;;;5016850;28;20099;-48
2024/01/26 01:39:58;;;;;;;13.13;6.90;;;7.10;99.90;;;;;;5052513;28;20037;-46
2024/01/26 01:42:24;;;;;;;14.45;6.25;;;7.10;99.90;;;;;;5052370;28;20434;-47
2024/01/26 01:44:50;;;;;;;12.88;6.57;;;7.10;99.90;;;;;;5052233;28;20059;-48
2024/01/26 01:47:16;;;;;;;13.00;6.30;;;7.10;99.90;;;;;;5051958;28;20728;-45
2024/01/26 01:49:43;;;;;;;14.23;6.72;;;7.10;99.90;;;;;;5052284;28;20067;-48
2024/01/26 01:52:11;;;;;;;17.25;6.35;;;7.10;99.90;;;;;;5016715;28;20072;-46
2024/01/26 01:54:37;;;;;;;11.55;6.45;;;7.10;99.90;;;;;;5052130;28;20090;-47
2024/01/26 01:57:04;;;;;;;15.40;6.32;;;7.10;99.90;;;;;;5052001;28;20052;-45
2024/01/26 01:59:33;;;;;;;14.50;5.47;;;7.10;99.90;;;;;;5051798;28;20816;-47
2024/01/26 02:02:00;;;;;;;14.50;6.13;;;7.10;99.90;;;;;;5052044;28;20504;-48
2024/01/26 02:04:26;;;;;;;10.20;5.15;;;7.10;99.90;;;;;;5052096;28;20036;-45
2024/01/26 02:07:03;;;;;;;14.68;5.63;;;7.00;99.90;;;;;;5032875;28;20076;-47
2024/01/26 02:09:31;;;;;;;8.95;4.50;;;7.00;99.90;;;;;;5051721;28;20116;-48
2024/01/26 02:11:57;;;;;;;14.13;5.55;;;7.00;99.90;;;;;;5051955;28;20029;-47
2024/01/26 02:14:25;;;;;;;12.73;4.78;;;7.00;99.90;;;;;;5051524;28;20052;-46
2024/01/26 02:16:55;;;;;;;14.23;5.13;;;7.10;99.90;;;;;;5051550;28;20067;-48
2024/01/26 02:19:21;;;;;;;12.23;4.82;;;7.00;99.90;;;;;;5050926;28;20044;-47
2024/01/26 02:21:47;;;;;;;9.80;4.90;;;7.10;99.90;;;;;;5051616;28;20115;-47
2024/01/26 02:24:13;;;;;;;11.88;5.03;;;7.10;99.90;;;;;;5051424;28;20437;-46
2024/01/26 02:26:40;;;;;;;14.40;4.30;;;7.10;99.90;;;;;;5051605;28;20094;-48
2024/01/26 02:29:06;;;;;;;14.32;5.60;;;7.00;99.90;;;;;;5051447;28;20032;-47
2024/01/26 02:31:31;;;;;;;16.38;5.88;;;7.00;99.90;;;;;;5032380;28;20498;-46
2024/01/26 02:33:57;;;;;;;10.38;5.50;;;7.00;99.90;;;;;;5051527;28;20087;-45
2024/01/26 02:36:23;;;;;;;15.80;7.40;;;7.00;99.80;;;;;;5051255;28;20533;-45
2024/01/26 02:38:49;;;;;;;14.40;5.85;;;6.90;99.90;;;;;;5051169;28;20056;-47
2024/01/26 02:41:15;;;;;;;14.63;5.72;;;6.90;99.90;;;;;;5051115;28;20098;-47
2024/01/26 02:43:41;;;;;;;13.18;5.43;;;6.80;99.90;;;;;;5051232;28;20044;-46
2024/01/26 02:46:10;;;;;;;11.45;5.35;;;6.90;99.90;;;;;;5050982;28;20033;-48
2024/01/26 02:48:36;;;;;;;14.38;6.03;;;6.80;99.90;;;;;;5050873;28;20061;-48
2024/01/26 02:51:01;;;;;;;9.48;4.38;;;6.80;99.90;;;;;;5051215;28;20044;-47
2024/01/26 02:53:27;;;;;;;12.15;5.03;;;6.80;99.90;;;;;;5050948;28;20045;-47
2024/01/26 02:55:53;;;;;;;14.98;6.75;;;6.80;99.90;;;;;;5050996;28;20055;-46
2024/01/26 02:58:19;;;;;;;16.25;8.23;;;6.70;99.90;;;;;;5050881;28;20499;-46
2024/01/26 03:00:45;;;;;;;17.33;6.85;;;6.70;99.90;;;;;;5051162;28;20048;-48
2024/01/26 03:03:10;;;;;;;19.25;6.40;;;6.60;99.90;;;;;;5050956;28;20040;-49
2024/01/26 03:05:36;;;;;;;9.65;4.63;;;6.60;99.90;;;;;;5051016;28;20039;-47
2024/01/26 03:08:02;;;;;;;11.13;4.93;;;6.60;99.90;;;;;;5050878;28;20203;-46
2024/01/26 03:10:28;;;;;;;11.35;5.47;;;6.50;99.90;;;;;;5051106;28;20041;-48
2024/01/26 03:12:55;;;;;;;10.95;5.40;;;6.60;99.90;;;;;;5050688;28;20396;-47
2024/01/26 03:15:21;;;;;;;14.35;5.43;;;6.60;99.90;;;;;;5050621;28;20121;-47
2024/01/26 03:17:47;;;;;;;13.07;7.10;;;6.60;99.90;;;;;;5050882;28;20428;-45
2024/01/26 03:20:13;;;;;;;20.42;6.18;;;6.60;99.90;;;;;;5050779;28;20071;-47
2024/01/26 03:22:39;;;;;;;10.43;4.40;;;6.50;99.90;;;;;;5050591;28;20041;-47
2024/01/26 03:25:06;;;;;;;12.75;4.97;;;6.60;99.90;;;;;;5050785;28;20435;-47
2024/01/26 03:27:31;;;;;;;11.45;5.90;;;6.50;99.90;;;;;;5015068;28;20044;-45
2024/01/26 03:29:57;;;;;;;9.07;4.85;;;6.50;99.90;;;;;;5054444;28;20040;-47
2024/01/26 03:32:24;;;;;;;13.05;5.88;;;5.20;99.90;;;;;;5063210;28;20036;-47
2024/01/26 03:34:50;;;;;;;13.88;5.35;;;6.50;99.90;;;;;;5065057;28;20066;-48
2024/01/26 03:37:16;;;;;;;13.45;5.35;;;6.60;99.90;;;;;;5074714;28;20036;-49
2024/01/26 03:39:42;;;;;;;11.40;4.78;;;6.60;99.90;;;;;;5074405;28;20127;-48
2024/01/26 03:42:10;;;;;;;12.57;4.88;;;6.70;99.90;;;;;;5074616;28;20115;-48
2024/01/26 03:44:36;;;;;;;11.48;4.45;;;6.60;99.90;;;;;;5074222;28;20036;-47
2024/01/26 03:47:03;;;;;;;11.73;5.05;;;6.70;99.90;;;;;;5026836;28;20488;-46
2024/01/26 03:49:29;;;;;;;10.10;4.68;;;6.70;99.90;;;;;;5064488;28;20034;-47
2024/01/26 03:51:55;;;;;;;8.85;4.47;;;6.70;99.90;;;;;;5063436;28;20131;-47
2024/01/26 03:54:20;;;;;;;10.02;4.68;;;6.60;99.90;;;;;;5063581;28;20688;-47
2024/01/26 03:56:46;;;;;;;13.48;5.30;;;6.60;99.90;;;;;;5062150;28;20047;-47
2024/01/26 03:59:12;;;;;;;10.07;4.70;;;6.60;99.90;;;;;;5054504;28;20536;-47
2024/01/26 04:01:38;;;;;;;12.23;5.40;;;6.60;99.90;;;;;;5054125;28;20025;-47
2024/01/26 04:04:04;;;;;;;12.10;4.93;;;6.60;99.90;;;;;;5054086;28;20059;-48
2024/01/26 04:06:30;;;;;;;13.63;4.70;;;6.70;99.90;;;;;;5054058;28;20175;-47
2024/01/26 04:08:56;;;;;;;12.90;4.70;;;6.70;99.70;;;;;;5054030;28;20033;-48
2024/01/26 04:11:22;;;;;;;9.38;4.60;;;6.60;99.60;;;;;;5054060;28;20640;-46
2024/01/26 04:13:48;;;;;;;7.13;4.72;;;6.60;99.60;;;;;;5053767;28;20091;-49
2024/01/26 04:16:13;;;;;;;8.80;4.10;;;6.60;99.70;;;;;;5054052;28;20113;-46
2024/01/26 04:18:40;;;;;;;12.98;4.10;;;6.50;99.70;;;;;;5054038;28;20036;-48
2024/01/26 04:21:06;;;;;;;8.73;3.70;;;6.50;99.90;;;;;;5053844;28;20106;-46
2024/01/26 04:23:32;;;;;;;8.52;3.90;;;6.50;99.90;;;;;;5053853;28;20041;-46
2024/01/26 04:25:58;;;;;;;11.82;3.92;;;6.40;99.90;;;;;;5054046;28;20091;-48
2024/01/26 04:28:24;;;;;;;8.15;3.80;;;6.40;99.90;;;;;;5056562;28;20120;-48
2024/01/26 04:30:50;;;;;;;11.10;4.13;;;6.40;99.90;;;;;;5067225;28;21240;-48
2024/01/26 04:33:16;;;;;;;8.57;4.32;;;;;;;;;;5073691;28;20551;-48
2024/01/26 04:35:41;;;;;;;11.63;4.30;;;6.20;99.90;;;;;;5064689;28;20033;-46
2024/01/26 04:38:07;;;;;;;10.50;4.18;;;6.30;99.90;;;;;;5053374;28;20603;-47
2024/01/26 04:40:33;;;;;;;10.05;4.68;;;6.30;99.90;;;;;;5052354;28;20040;-46
2024/01/26 04:43:00;;;;;;;12.38;4.20;;;6.30;99.90;;;;;;5053231;28;20036;-48
2024/01/26 04:45:25;;;;;;;9.43;3.90;;;6.30;99.90;;;;;;5053134;28;20075;-46
2024/01/26 04:47:52;;;;;;;11.80;3.95;;;6.20;99.90;;;;;;5053107;28;20084;-47
2024/01/26 04:50:17;;;;;;;9.40;4.18;;;6.20;99.90;;;;;;5053235;28;20384;-49
2024/01/26 04:52:43;;;;;;;10.27;4.25;;;6.20;99.90;;;;;;5017722;28;20048;-48
2024/01/26 04:55:09;;;;;;;7.78;3.20;;;6.20;99.90;;;;;;5053365;28;20049;-47
2024/01/26 04:57:35;;;;;;;10.10;3.63;;;6.20;99.90;;;;;;5053276;28;20431;-47
2024/01/26 05:00:01;;;;;;;11.45;3.90;;;6.20;99.90;;;;;;5017421;28;20052;-47
2024/01/26 05:02:27;;;;;;;14.63;3.83;;;6.20;99.90;;;;;;5034029;28;20119;-47
2024/01/26 05:04:53;;;;;;;6.93;3.22;;;6.20;99.90;;;;;;5052703;28;20039;-49
2024/01/26 05:07:18;;;;;;;10.25;3.55;;;6.10;99.90;;;;;;5053105;28;20036;-46
2024/01/26 05:09:44;;;;;;;10.18;3.15;;;6.10;99.90;;;;;;5052656;28;20507;-47
2024/01/26 05:12:10;;;;;;;11.30;4.03;;;6.10;99.90;;;;;;5053006;28;20040;-46
2024/01/26 05:14:36;;;;;;;7.50;3.53;;;6.20;99.90;;;;;;5052819;28;20064;-48
2024/01/26 05:17:05;;;;;;;9.52;4.43;;;6.10;99.90;;;;;;5052416;28;20039;-48
2024/01/26 05:19:30;;;;;;;9.93;3.58;;;6.10;99.90;;;;;;5017393;28;20094;-47
2024/01/26 05:21:56;;;;;;;10.80;4.82;;;6.10;99.90;;;;;;5052592;28;20680;-47
2024/01/26 05:24:22;;;;;;;9.75;3.63;;;6.10;99.90;;;;;;5052723;28;20037;-46
2024/01/26 05:26:48;;;;;;;13.68;4.50;;;6.10;99.90;;;;;;5052659;28;20551;-49
2024/01/26 05:29:14;;;;;;;9.82;3.63;;;6.10;99.90;;;;;;5059663;28;20032;-46
2024/01/26 05:31:41;;;;;;;8.65;3.70;;;6.20;99.90;;;;;;5060957;28;20083;-49
2024/01/26 05:34:07;;;;;;;8.45;3.35;;;6.10;99.90;;;;;;5052244;28;20131;-48
2024/01/26 05:36:32;;;;;;;9.73;3.40;;;6.20;99.90;;;;;;5059588;28;20120;-48
2024/01/26 05:38:58;;;;;;;9.18;3.65;;;6.10;99.90;;;;;;5072270;28;20553;-48
2024/01/26 05:41:24;;;;;;;11.48;4.80;;;6.20;99.90;;;;;;5020285;28;20448;-47
2024/01/26 05:43:50;;;;;;;10.30;3.53;;;6.20;99.90;;;;;;5071930;28;20071;-48
2024/01/26 05:46:16;;;;;;;11.20;3.92;;;6.20;99.90;;;;;;5056680;28;20040;-48
2024/01/26 05:48:45;;;;;;;10.10;3.17;;;6.20;99.90;;;;;;5051927;28;20061;-47
2024/01/26 05:51:12;;;;;;;8.38;3.20;;;6.20;99.90;;;;;;5052042;28;20040;-46
2024/01/26 05:53:38;;;;;;;10.82;4.28;;;6.20;99.90;;;;;;5032111;28;20044;-48
2024/01/26 05:56:04;;;;;;;9.77;3.28;;;6.20;99.90;;;;;;5051812;28;20155;-48
2024/01/26 05:58:31;;;;;;;5.35;3.30;;;6.10;99.90;;;;;;5033050;28;20072;-49
2024/01/26 06:00:57;;;;;;;10.23;3.80;;;6.20;99.90;;;;;;5056084;28;20043;-47
2024/01/26 06:03:23;;;;;;;9.48;4.03;;;6.10;99.90;;;;;;5016157;28;20045;-49
2024/01/26 06:05:49;;;;;;;13.77;5.38;;;6.10;99.90;;;;;;5059583;28;20375;-49
2024/01/26 06:08:15;;;;;;;10.60;3.75;;;6.10;99.90;;;;;;5062496;28;20105;-46
2024/01/26 06:10:41;;;;;;;10.82;4.75;;;6.10;99.90;;;;;;5053719;28;20025;-47
2024/01/26 06:13:07;;;;;;;11.10;4.90;;;6.10;99.90;;;;;;5071707;28;20479;-47
2024/01/26 06:15:35;;;;;;;13.23;5.65;;;6.10;99.90;;;;;;5066277;28;20119;-48
2024/01/26 06:18:01;;;;;;;11.30;6.05;;;6.10;99.90;;;;;;5051516;28;20124;-48
2024/01/26 06:20:31;;;;;;;14.77;6.70;;;6.10;99.90;;;;;;5007125;28;20147;-46
2024/01/26 06:23:00;;;;;;;9.20;5.07;;;6.10;99.90;;;;;;5061666;28;20037;-47
2024/01/26 06:25:26;;;;;;;10.40;4.18;;;6.10;99.90;;;;;;5066338;28;20082;-46
2024/01/26 06:27:52;;;;;;;20.67;4.88;;;6.10;99.90;;;;;;5050835;28;20033;-48
2024/01/26 06:30:18;;;;;;;9.57;3.72;;;6.00;99.90;;;;;;5055026;28;20098;-47
2024/01/26 06:32:44;;;;;;;8.60;3.97;;;5.90;99.90;;;;;;5071161;28;20029;-46
2024/01/26 06:35:10;;;;;;;7.30;3.45;;;5.90;99.90;;;;;;5071206;28;20056;-48
2024/01/26 06:37:36;;;;;;;8.43;4.22;;;5.90;99.90;;;;;;5071215;28;20036;-47
2024/01/26 06:40:02;;;;;;;12.00;3.92;;;5.90;99.90;;;;;;5019246;28;20406;-46
2024/01/26 06:42:30;;;;;;;12.82;7.13;;;6.50;99.90;;;;;;5019087;28;20041;-49
2024/01/26 06:44:56;;;;;;;11.73;6.15;;;8.00;98.80;;;;;;5070938;28;20077;-48
2024/01/26 06:47:22;;;;;;;9.70;4.13;;;;;;;;;;5071083;28;20060;-47
2024/01/26 06:49:48;;;;;;;9.10;5.55;;;;;;;;;;5071061;28;20044;-49
2024/01/26 06:52:14;;;;;;;11.48;5.72;;;11.60;92.20;;;;;;5070759;28;20036;-49
2024/01/26 06:54:40;;;;;;;9.95;5.20;;;12.70;91.50;;;;;;5070858;28;20036;-48
2024/01/26 06:57:06;;;;;;;9.65;4.45;;;13.90;90.30;;;;;;5070922;28;20408;-49
2024/01/26 06:59:32;;;;;;;10.18;4.50;;;14.70;87.90;;;;;;5069385;28;20108;-49
2024/01/26 07:01:58;;;;;;;10.57;4.15;;;15.40;86.20;;;;;;5066070;28;20488;-48
2024/01/26 07:04:25;;;;;;;9.80;5.55;;;;;;;;;;5061554;28;20119;-47
2024/01/26 07:06:51;;;;;;;19.80;8.32;;;;;;;;;;5070893;28;20051;-48
2024/01/26 07:09:16;;;;;;;12.32;4.85;;;17.10;82.40;;;;;;5062086;28;20042;-47
2024/01/26 07:11:43;;;;;;;8.30;5.45;;;;;;;;;;5056643;28;20112;-49
2024/01/26 07:14:10;;;;;;;12.75;5.35;;;18.10;79.90;;;;;;5040854;28;20114;-49
2024/01/26 07:16:36;;;;;;;10.23;5.45;;;18.40;79.90;;;;;;5024107;28;20041;-50
2024/01/26 07:19:01;;;;;;;16.10;7.03;;;19.30;79.00;;;;;;5009828;28;20037;-47
2024/01/26 07:21:28;;;;;;;11.55;5.18;;;;;;;;;;5060158;28;20025;-50
2024/01/26 07:23:54;;;;;;;7.07;4.30;;;;;;;;;;5060714;28;20476;-50
2024/01/26 07:26:20;;;;;;;8.40;4.30;;;;;;;;;;5067708;28;20024;-50
2024/01/26 07:28:47;;;;;;;10.95;4.50;;;;;;;;;;5027354;28;20028;-49
2024/01/26 07:31:13;;;;;;;8.32;4.75;;;;;;;;;;5058258;28;20384;-48
2024/01/26 07:33:39;;;;;;;8.48;4.85;;;;;;;;;;5065322;28;20044;-48
2024/01/26 07:36:05;;;;;;;9.85;4.53;;;19.60;74.70;;;;;;5070836;28;20027;-48
2024/01/26 07:38:31;;;;;;;7.32;4.85;;;19.60;75.20;;;;;;5034622;28;20040;-46
2024/01/26 07:40:57;;;;;;;7.82;5.05;;;;;;;;;;5069101;28;20032;-48
2024/01/26 07:43:24;;;;;;;7.57;4.72;;;19.40;75.50;;;;;;5061890;28;20100;-48
2024/01/26 07:45:50;;;;;;;13.70;6.40;;;;;;;;;;5050483;28;20032;-48
2024/01/26 07:48:16;;;;;;;7.97;4.85;;;19.30;74.10;;;;;;5050113;28;20071;-49
2024/01/26 07:50:43;;;;;;;9.88;4.55;;;;;;;;;;5018210;28;20061;-48
2024/01/26 07:53:12;;;;;;;12.20;5.13;;;;;;;;;;5050323;28;20100;-48
2024/01/26 07:55:38;;;;;;;10.50;5.05;;;20.30;73.50;;;;;;5050379;28;20037;-48
2024/01/26 07:58:04;;;;;;;11.43;6.97;;;21.30;94.70;;;;;;5014879;28;20391;-47
2024/01/26 08:00:29;;;;;;;10.23;5.93;;;21.20;74.20;;;;;;5050215;28;20028;-46
2024/01/26 08:02:55;;;;;;;12.20;7.22;;;20.90;73.90;;;;;;5050335;28;20067;-47
2024/01/26 08:05:21;;;;;;;11.70;10.13;;;20.90;74.00;;;;;;5050467;28;20029;-47
2024/01/26 08:07:47;;;;;;;10.93;6.65;;;21.10;76.00;;;;;;4998734;28;20116;-47
2024/01/26 08:10:13;;;;;;;10.32;8.43;;;21.00;73.30;;;;;;5050226;28;20033;-47
2024/01/26 08:12:40;;;;;;;17.73;12.55;;;;;;;;;;5049882;28;20120;-48
2024/01/26 08:15:07;;;;;;;11.13;7.70;;;22.50;88.60;;;;;;5050045;28;20045;-49
2024/01/26 08:17:33;;;;;;;14.90;12.85;;;21.90;72.60;;;;;;5001193;28;20079;-48
2024/01/26 08:19:59;;;;;;;11.57;10.00;;;21.00;73.60;;;;;;5054042;28;20032;-49
2024/01/26 08:22:25;;;;;;;11.40;7.30;;;21.20;72.70;;;;;;5011349;28;20049;-49
2024/01/26 08:24:51;;;;;;;11.45;7.30;;;21.70;73.20;;;;;;5011471;28;20120;-48
2024/01/26 08:27:17;;;;;;;10.20;6.63;;;21.10;73.60;;;;;;5011238;28;20093;-47
2024/01/26 08:29:43;;;;;;;9.70;6.95;;;20.90;73.10;;;;;;5011061;28;20413;-49
2024/01/26 08:32:09;;;;;;;10.20;8.60;;;20.60;73.10;;;;;;5011381;28;20033;-46
2024/01/26 08:34:38;;;;;;;10.95;7.97;;;20.40;74.00;;;;;;5011016;28;20069;-47
2024/01/26 08:37:04;;;;;;;12.95;5.88;;;20.50;74.20;;;;;;5010961;28;20042;-47
2024/01/26 08:39:30;;;;;;;12.60;11.27;;;20.30;73.20;;;;;;5010613;28;20478;-48
2024/01/26 08:41:58;;;;;;;11.00;7.68;;;20.90;73.80;;;;;;5011082;28;20032;-47
2024/01/26 08:44:24;;;;;;;9.07;5.15;;;20.00;74.70;;;;;;5011023;28;20034;-46
2024/01/26 08:46:50;;;;;;;12.77;6.93;;;19.10;74.50;;;;;;5010674;28;20085;-49
2024/01/26 08:49:16;;;;;;;11.68;6.68;;;20.30;74.50;;;;;;4994619;28;20107;-50
2024/01/26 08:51:42;;;;;;;11.50;5.38;;;19.80;75.10;;;;;;4994370;28;20042;-46
2024/01/26 08:54:07;;;;;;;14.68;6.63;;;20.00;74.50;;;;;;5010712;28;20057;-49
2024/01/26 08:56:39;;;;;;;13.38;5.63;;;19.60;74.70;;;;;;5010983;28;20044;-49
2024/01/26 08:59:07;;;;;;;;;;;19.10;74.10;;;;;;5018959;28;20097;-47
2024/01/26 09:01:35;;;;;;;7.75;4.70;;;20.10;74.80;;;;;;5052972;28;20349;-49
2024/01/26 09:04:03;;;;;;;7.18;5.07;;;19.30;74.50;;;;;;5052989;28;20039;-47
2024/01/26 09:06:28;;;;;;;9.10;5.72;;;20.00;74.60;;;;;;5052705;28;20040;-49
2024/01/26 09:08:54;;;;;;;9.43;7.20;;;20.40;73.70;;;;;;5052573;28;20109;-47
2024/01/26 09:11:20;;;;;;;14.68;9.48;;;20.70;73.80;;;;;;5052783;28;20124;-49
2024/01/26 09:13:46;;;;;;;7.55;6.72;;;20.60;74.40;;;;;;5051942;28;20078;-51
2024/01/26 09:16:11;;;;;;;11.70;5.80;;;20.20;72.90;;;;;;5017120;28;20063;-47
2024/01/26 09:18:38;;;;;;;10.38;6.07;;;20.30;73.50;;;;;;5052663;28;20476;-48
2024/01/26 09:21:05;;;;;;;9.73;7.00;;;20.60;73.70;;;;;;5060490;28;20045;-49
2024/01/26 09:23:30;;;;;;;10.27;6.57;;;21.10;74.20;;;;;;5044066;28;20039;-48
2024/01/26 09:25:58;;;;;;;6.90;5.15;;;21.40;73.60;;;;;;5054672;28;20041;-47
2024/01/26 09:28:24;;;;;;;8.80;6.93;;;20.10;72.50;;;;;;5051896;28;20044;-49
2024/01/26 09:30:50;;;;;;;8.18;5.43;;;19.80;72.80;;;;;;5002191;28;20048;-48
2024/01/26 09:33:15;;;;;;;8.50;5.18;;;19.50;74.70;;;;;;5066623;28;20388;-46
2024/01/26 09:35:41;;;;;;;10.30;7.55;;;19.80;75.80;;;;;;5071911;28;20167;-47
2024/01/26 09:38:07;;;;;;;4.80;4.40;;;20.30;74.10;;;;;;5069563;28;20365;-48
2024/01/26 09:40:33;;;;;;;4.57;4.13;;;19.50;73.10;;;;;;5055702;28;20045;-48
2024/01/26 09:42:59;;;;;;;9.68;4.20;;;18.40;73.80;;;;;;5071780;28;20036;-47
2024/01/26 09:45:25;;;;;;;8.45;3.90;;;18.80;74.00;;;;;;5072092;28;20041;-47
2024/01/26 09:47:52;;;;;;;7.40;6.80;;;17.70;74.40;;;;;;5050311;28;20052;-47
2024/01/26 09:50:21;;;;;;;8.90;4.22;;;18.90;75.10;;;;;;5045088;28;20418;-50
2024/01/26 09:52:47;;;;;;;10.02;6.70;;;18.00;74.80;;;;;;5060240;28;20046;-48
2024/01/26 09:55:14;;;;;;;6.82;6.13;;;;;;;;;;5024302;28;20106;-48
2024/01/26 09:57:41;;;;;;;5.05;3.75;;;;;;;;;;5058901;28;20025;-49
2024/01/26 10:00:10;;;;;;;7.70;6.50;;;;;;;;;;5048744;28;20064;-49
2024/01/26 10:02:35;;;;;;;5.38;3.53;;;18.90;96.70;;;;;;5036916;28;20637;-47
2024/01/26 10:05:01;;;;;;;13.05;5.32;;;19.70;85.50;;;;;;5071331;28;20045;-49
2024/01/26 10:07:27;;;;;;;17.00;4.38;;;19.50;94.00;;;;;;5019958;28;20044;-46
2024/01/26 10:09:53;;;;;;;10.20;5.65;;;20.00;94.10;;;;;;5071460;28;20078;-47
2024/01/26 10:12:19;;;;;;;10.18;9.20;;;20.50;90.40;;;;;;5071396;28;20055;-48
2024/01/26 10:14:45;;;;;;;5.95;5.18;;;19.90;91.10;;;;;;5063105;28;20040;-46
2024/01/26 10:17:17;;;;;;;8.15;6.70;;;19.40;73.60;;;;;;5071469;28;20450;-47
2024/01/26 10:19:43;;;;;;;5.60;4.90;;;18.80;73.70;;;;;;5042496;28;20487;-48
2024/01/26 10:22:08;;;;;;;6.78;4.60;;;19.10;73.70;;;;;;5002905;28;20092;-47
2024/01/26 10:24:34;;;;;;;8.25;4.47;;;19.60;74.30;;;;;;5011969;28;20045;-50
2024/01/26 10:27:00;;;;;;;10.75;6.00;;;19.00;74.20;;;;;;5013444;28;20080;-49
2024/01/26 10:29:26;;;;;;;12.48;5.30;;;18.90;73.80;;;;;;4992296;28;20041;-48
2024/01/26 10:31:52;;;;;;;14.43;8.57;;;18.70;75.40;;;;;;5007030;28;20045;-50
2024/01/26 10:34:19;;;;;;;9.48;8.65;;;;;;;;;;4991671;28;20145;-50
2024/01/26 10:36:46;;;;;;;12.50;6.93;;;19.70;94.00;;;;;;5008981;28;20606;-49
2024/01/26 10:39:22;;;;;;;7.68;3.63;;;18.60;95.10;;;;;;5008144;28;20034;-47
2024/01/26 10:41:50;;;;;;;9.93;4.35;;;18.40;95.80;;;;;;5009144;28;20046;-48
2024/01/26 10:44:16;;;;;;;6.40;4.82;;;19.00;95.50;;;;;;4991209;28;20034;-50
2024/01/26 10:46:42;;;;;;;7.22;6.03;;;19.50;95.30;;;;;;5010532;28;20034;-49
2024/01/26 10:49:10;;;;;;;7.07;4.88;;;19.20;95.50;;;;;;5006283;28;20049;-49
2024/01/26 10:51:41;;;;;;;8.32;4.85;;;18.00;75.80;;;;;;5003982;28;20026;-50
2024/01/26 10:54:11;;;;;;;7.53;4.88;;;18.40;91.10;;;;;;5029087;28;20140;-48
2024/01/26 10:56:38;;;;;;;29.30;13.68;;;18.30;91.00;;;;;;5038137;28;20115;-49
2024/01/26 10:59:05;;;;;;;26.90;12.27;;;;;;;;;;5045068;28;20447;-49
2024/01/26 11:01:31;;;;;;;18.45;12.50;;;18.90;97.80;;;;;;5048556;28;20095;-49
2024/01/26 11:03:58;;;;;;;15.77;9.25;;;18.50;97.50;;;;;;5015602;28;20036;-48
2024/01/26 11:06:26;;;;;;;9.85;6.10;;;19.10;97.70;;;;;;5051039;28;20033;-50
2024/01/26 11:08:59;;;;;;;15.25;10.18;;;18.20;96.60;;;;;;5050796;28;20120;-48
2024/01/26 11:11:29;;;;;;;10.25;5.18;;;18.80;96.50;;;;;;5031812;28;20051;-50
2024/01/26 11:13:59;;;;;;;11.05;6.20;;;18.80;96.50;;;;;;5050585;28;20098;-47
2024/01/26 11:16:30;;;;;;;15.40;6.20;;;18.80;96.80;;;;;;5064327;28;20037;-50
2024/01/26 11:18:59;;;;;;;6.60;3.83;;;19.00;77.50;;;;;;5050513;28;20465;-48
2024/01/26 11:21:39;;;;;;;13.93;8.20;;;18.50;76.20;;;;;;5047858;28;20095;-48
2024/01/26 11:24:18;;;;;;;7.07;3.10;;;18.30;76.40;;;;;;5065009;28;20408;-47
2024/01/26 11:26:59;;;;;;;7.40;3.50;;;18.10;77.40;;;;;;5032370;28;20033;-50
2024/01/26 11:29:35;;;;;;;6.38;3.83;;;;;;;;;;5050361;28;20516;-49
2024/01/26 11:32:02;;;;;;;9.07;5.30;;;;;;;;;;5065181;28;20114;-50
2024/01/26 11:34:28;;;;;;;7.32;4.50;;;;;;;;;;5048830;28;20128;-51
2024/01/26 11:37:10;;;;;;;5.95;3.33;;;;;;;;;;5048636;28;20037;-53
2024/01/26 11:39:38;;;;;;;4.18;3.10;;;;;;;;;;5049315;28;20511;-51
2024/01/26 11:42:11;;;;;;;12.05;6.50;;;;;;;;;;5035130;28;20069;-50
2024/01/26 11:44:49;;;;;;;6.72;2.85;;;;;;;;;;5029448;28;20067;-53
2024/01/26 11:47:48;;;;;;;4.43;2.55;;;;;;;;;;5038029;28;20053;-51
2024/01/26 11:50:17;;;;;;;9.38;3.53;;;;;;;;;;5033039;28;20033;-53
2024/01/26 11:52:44;;;;;;;6.45;3.53;;;;;;;;;;5054442;28;20044;-53
2024/01/26 11:55:36;;;;;;;8.18;4.93;;;;;;;;;;5036816;28;20056;-52
2024/01/26 11:58:08;;;;;;;4.63;2.92;;;17.70;96.40;;;;;;5036439;28;20033;-52
2024/01/26 12:00:35;;;;;;;7.78;3.17;;;19.30;96.30;;;;;;5036392;28;20559;-50
2024/01/26 12:03:05;;;;;;;6.32;2.88;;;17.80;96.30;;;;;;5036799;28;20036;-52
2024/01/26 12:05:33;;;;;;;5.82;3.03;;;18.20;96.20;;;;;;5054071;28;20037;-52
2024/01/26 12:08:04;;;;;;;14.85;3.88;;;;;;;;;;5036511;28;20059;-51
2024/01/26 12:10:30;;;;;;;9.93;5.28;;;;;;;;;;5054328;28;20052;-48
2024/01/26 12:12:57;;;;;;;6.25;3.90;;;;;;;;;;5036050;28;20566;-51
2024/01/26 12:15:27;;;;;;;6.40;2.40;;;;;;;;;;5053998;28;20033;-48
2024/01/26 12:17:54;;;;;;;7.13;2.95;;;;;;;;;;5064986;28;20571;-51
2024/01/26 12:20:21;;;;;;;6.82;2.58;;;;;;;;;;5074248;28;20086;-51
2024/01/26 12:22:47;;;;;;;8.40;3.33;;;;;;;;;;5057996;28;20072;-51
2024/01/26 12:25:14;;;;;;;5.35;3.22;;;;;;;;;;5054068;28;20131;-49
2024/01/26 12:27:41;;;;;;;11.80;2.85;;;;;;;;;;5053873;28;20052;-49
2024/01/26 12:30:10;;;;;;;9.75;3.15;;;16.70;94.30;;;;;;5053839;28;20037;-50
2024/01/26 12:32:37;;;;;;;9.95;3.50;;;16.80;97.10;;;;;;5053592;28;20083;-49
2024/01/26 12:35:03;;;;;;;8.00;3.25;;;16.10;81.10;;;;;;5054094;28;20056;-51
2024/01/26 12:37:30;;;;;;;7.90;2.40;;;15.70;81.00;;;;;;5001320;28;20532;-48
2024/01/26 12:39:56;;;;;;;11.15;5.55;;;16.00;82.20;;;;;;5053619;28;20552;-50
2024/01/26 12:42:22;;;;;;;6.78;2.78;;;15.90;82.40;;;;;;5018143;28;20135;-50
2024/01/26 12:44:47;;;;;;;4.53;2.13;;;16.10;83.00;;;;;;5017952;28;20102;-50
2024/01/26 12:47:13;;;;;;;10.82;3.95;;;15.90;82.10;;;;;;5053400;28;20053;-51
2024/01/26 12:49:39;;;;;;;7.63;3.28;;;16.10;82.30;;;;;;5053304;28;20120;-48
2024/01/26 12:52:05;;;;;;;5.88;3.13;;;15.70;83.00;;;;;;5052947;28;20029;-49
2024/01/26 12:54:31;;;;;;;9.65;4.25;;;16.00;82.90;;;;;;5034009;28;20110;-51
2024/01/26 12:56:57;;;;;;;7.28;3.60;;;16.00;83.40;;;;;;5057031;28;20048;-50